FlightSource - Aviation Photo Database

World Wide Airport Lookup


Search by ICAO
Or
Search by City

FlightSource.ca - Aviation Photo Database - La Junta Municipal Airport Information
Airport Identification
Name: La Junta Municipal Airport
ICAO: KLHX
IATA:
Airport Location
City: La Junta
Region: CO
Country: United States
Continent: North America
Latitude: 38.0497
Longitude: -103.509
Airport Information
Type: Small Airport
Elevation: 4238 Feet ASL
Flight Status: KLHX
More Info: KLHX
Airport Weather    
Metar: KLHX 261953Z AUTO 03009KT 10SM CLR 34/15 A3011 RMK AO2 SLP123 T03440150 TSNO
TAF:


Advertisement